Time;durP1;ratioP1;P1;durP2;ratioP2;P2;SDS_P1;SDS_P2;PMS_P1;PMS_P2;Temp;Humidity;BMP_temperature;BMP_pressure;BME280_temperature;BME280_humidity;BME280_pressure;Samples;Min_cycle;Max_cycle;Signal;HPM_P1;HPM_P2
2022/06/03 00:02:01;;;;;;;;;;;18.30;99.90;;;;;;5063466;28;20283;-83
2022/06/03 00:04:42;;;;;;;;;;;18.30;99.90;;;;;;5056580;28;19912;-83
2022/06/03 00:07:10;;;;;;;;;;;18.20;99.90;;;;;;5074113;28;19913;-81
2022/06/03 00:09:44;;;;;;;;;;;18.10;99.90;;;;;;5073236;28;20356;-83
2022/06/03 00:12:10;;;;;;;;;;;18.00;99.90;;;;;;5074267;28;19947;-82
2022/06/03 00:14:45;;;;;;;;;;;18.00;99.90;;;;;;5072518;28;19948;-82
2022/06/03 00:17:20;;;;;;;;;;;18.00;99.90;;;;;;5073574;28;19919;-81
2022/06/03 00:19:51;;;;;;;;;;;18.00;99.90;;;;;;5074241;28;19915;-82
2022/06/03 00:22:44;;;;;;;;;;;17.90;99.90;;;;;;5074098;28;19912;-80
2022/06/03 00:25:36;;;;;;;;;;;17.80;99.90;;;;;;5014467;28;20462;-81
2022/06/03 00:28:20;;;;;;;;;;;17.90;99.90;;;;;;5006862;28;19935;-81
2022/06/03 00:30:49;;;;;;;;;;;17.90;99.90;;;;;;5036172;28;20373;-82
2022/06/03 00:33:18;;;;;;;;;;;17.90;99.90;;;;;;5036266;28;20277;-80
2022/06/03 00:35:50;;;;;;;;;;;17.90;99.90;;;;;;5053745;28;19912;-83
2022/06/03 00:38:34;;;;;;;;;;;17.80;99.90;;;;;;5034853;28;20320;-80
2022/06/03 00:41:18;;;;;;;;;;;17.90;99.90;;;;;;5053202;28;19909;-82
2022/06/03 00:43:49;;;;;;;;;;;17.80;99.90;;;;;;5052828;28;19909;-80
2022/06/03 00:46:22;;;;;;;;;;;17.70;99.90;;;;;;5052974;28;19961;-83
2022/06/03 00:49:00;;;;;;;;;;;17.60;99.90;;;;;;5052664;28;19923;-83
2022/06/03 00:51:32;;;;;;;;;;;17.60;99.90;;;;;;5052906;28;19948;-82
2022/06/03 00:54:16;;;;;;;;;;;17.60;99.90;;;;;;5052965;28;20011;-83
2022/06/03 00:56:47;;;;;;;;;;;17.50;99.90;;;;;;5052639;28;20299;-81
2022/06/03 00:59:45;;;;;;;;;;;17.50;99.90;;;;;;5034482;28;19916;-81
2022/06/03 01:02:29;;;;;;;;;;;17.40;99.90;;;;;;4987719;28;19909;-83
2022/06/03 01:05:13;;;;;;;;;;;17.40;99.90;;;;;;5052732;28;20129;-82
2022/06/03 01:07:51;;;;;;;;;;;17.40;99.90;;;;;;5034484;28;19909;-83
2022/06/03 01:10:22;;;;;;;;;;;17.20;99.90;;;;;;5052685;28;19917;-83
2022/06/03 01:13:02;;;;;;;;;;;17.20;99.90;;;;;;5034786;28;19914;-81
2022/06/03 01:15:40;;;;;;;;;;;17.30;99.90;;;;;;5052556;28;19948;-83
2022/06/03 01:18:05;;;;;;;;;;;17.40;99.90;;;;;;5052235;28;19915;-82
2022/06/03 01:20:33;;;;;;;;;;;17.50;99.90;;;;;;5052272;28;20453;-83
2022/06/03 01:23:17;;;;;;;;;;;17.50;99.90;;;;;;5052632;28;19909;-82
2022/06/03 01:26:07;;;;;;;;;;;17.30;99.90;;;;;;5033379;28;19912;-82
2022/06/03 01:28:52;;;;;;;;;;;17.20;99.90;;;;;;5034153;28;20300;-82
2022/06/03 01:31:37;;;;;;;;;;;17.00;99.90;;;;;;5052197;28;19913;-83
2022/06/03 01:34:09;;;;;;;;;;;16.90;99.90;;;;;;5034512;28;19909;-82
2022/06/03 01:36:51;;;;;;;;;;;16.90;99.90;;;;;;4981767;28;2008374;-83
2022/06/03 01:39:25;;;;;;;;;;;16.80;99.90;;;;;;5052682;28;19959;-83
2022/06/03 01:41:57;;;;;;;;;;;16.80;99.90;;;;;;5053191;28;19909;-82
2022/06/03 01:44:32;;;;;;;;;;;16.80;99.90;;;;;;5034981;28;19909;-82
2022/06/03 01:47:16;;;;;;;;;;;16.70;99.90;;;;;;5053204;28;20284;-82
2022/06/03 01:49:48;;;;;;;;;;;16.80;99.90;;;;;;5052669;28;19908;-82
2022/06/03 01:52:46;;;;;;;;;;;16.90;99.90;;;;;;5053882;28;19909;-81
2022/06/03 01:55:30;;;;;;;;;;;16.70;99.90;;;;;;5043312;28;19935;-81
2022/06/03 01:57:56;;;;;;;;;;;16.50;99.90;;;;;;5055982;28;19909;-82
2022/06/03 02:00:48;;;;;;;;;;;16.40;99.90;;;;;;5056097;28;19916;-83
2022/06/03 02:03:19;;;;;;;;;;;16.30;99.90;;;;;;5054976;28;20000;-82
2022/06/03 02:05:45;;;;;;;;;;;16.50;99.90;;;;;;5056017;28;19916;-82
2022/06/03 02:08:13;;;;;;;;;;;16.50;99.90;;;;;;5055872;28;19908;-81
2022/06/03 02:10:42;;;;;;;;;;;16.70;99.90;;;;;;5055986;28;19909;-82
2022/06/03 02:13:26;;;;;;;;;;;16.90;99.90;;;;;;5037928;28;20304;-82
2022/06/03 02:16:01;;;;;;;;;;;16.80;99.90;;;;;;5055411;28;19913;-82
2022/06/03 02:18:29;;;;;;;;;;;16.60;99.90;;;;;;5055081;28;19913;-82
2022/06/03 02:21:13;;;;;;;;;;;16.60;99.90;;;;;;5055338;28;19908;-81
2022/06/03 02:23:39;;;;;;;;;;;16.50;99.90;;;;;;5055277;28;19963;-84
2022/06/03 02:26:10;;;;;;;;;;;16.40;99.90;;;;;;5037642;28;19909;-82
2022/06/03 02:28:36;;;;;;;;;;;16.40;99.90;;;;;;5055339;28;19909;-80
2022/06/03 02:31:05;;;;;;;;;;;16.60;99.90;;;;;;5055324;28;20047;-81
2022/06/03 02:33:44;;;;;;;;;;;16.60;99.90;;;;;;5055613;28;19909;-82
2022/06/03 02:36:28;;;;;;;;;;;16.60;99.90;;;;;;5055035;28;19921;-82
2022/06/03 02:38:57;;;;;;;;;;;16.50;99.90;;;;;;5058306;28;19908;-82
2022/06/03 02:41:22;;;;;;;;;;;16.40;99.90;;;;;;5058600;28;19979;-81
2022/06/03 02:43:57;;;;;;;;;;;16.40;99.90;;;;;;5058453;28;19909;-81
2022/06/03 02:46:29;;;;;;;;;;;16.40;99.90;;;;;;5038859;28;19916;-81
2022/06/03 02:49:09;;;;;;;;;;;16.30;99.90;;;;;;5056196;28;20396;-82
2022/06/03 02:51:35;;;;;;;;;;;16.40;99.90;;;;;;5038174;28;19915;-80
2022/06/03 02:54:19;;;;;;;;;;;16.50;99.90;;;;;;5056193;28;20298;-80
2022/06/03 02:56:54;;;;;;;;;;;16.50;99.90;;;;;;5037660;28;19917;-82
2022/06/03 02:59:38;;;;;;;;;;;16.70;99.90;;;;;;5058750;28;20035;-80
2022/06/03 03:02:12;;;;;;;;;;;16.70;99.90;;;;;;5063676;28;20361;-82
2022/06/03 03:04:47;;;;;;;;;;;16.70;99.90;;;;;;5062493;28;20007;-80
2022/06/03 03:07:15;;;;;;;;;;;16.70;99.90;;;;;;5063855;28;19932;-82
2022/06/03 03:09:44;;;;;;;;;;;16.70;99.90;;;;;;5062638;28;19996;-80
2022/06/03 03:12:23;;;;;;;;;;;16.80;99.90;;;;;;5064232;28;19916;-80
2022/06/03 03:15:07;;;;;;;;;;;16.80;99.90;;;;;;5057833;28;19986;-82
2022/06/03 03:17:42;;;;;;;;;;;16.80;99.90;;;;;;5055604;28;20373;-80
2022/06/03 03:20:18;;;;;;;;;;;16.80;99.90;;;;;;5055059;28;19909;-82
2022/06/03 03:22:49;;;;;;;;;;;16.70;99.90;;;;;;5055852;28;20057;-83
2022/06/03 03:25:23;;;;;;;;;;;16.30;99.90;;;;;;5056022;28;20362;-82
2022/06/03 03:28:03;;;;;;;;;;;15.90;99.90;;;;;;5056035;28;19974;-82
2022/06/03 03:30:28;;;;;;;;;;;15.60;99.90;;;;;;5055505;28;19909;-83
2022/06/03 03:33:12;;;;;;;;;;;15.80;99.90;;;;;;5055796;28;19909;-81
2022/06/03 03:35:57;;;;;;;;;;;16.00;99.90;;;;;;5055861;28;19916;-81
2022/06/03 03:38:41;;;;;;;;;;;16.30;99.90;;;;;;5055295;28;19927;-83
2022/06/03 03:41:12;;;;;;;;;;;16.20;99.90;;;;;;5055537;28;20436;-82
2022/06/03 03:43:53;;;;;;;;;;;16.20;99.90;;;;;;5055328;28;20043;-82
2022/06/03 03:46:19;;;;;;;;;;;16.30;99.90;;;;;;5055409;28;19912;-82
2022/06/03 03:48:44;;;;;;;;;;;16.50;99.90;;;;;;5054106;28;19908;-80
2022/06/03 03:51:19;;;;;;;;;;;16.60;99.90;;;;;;5055656;28;19991;-83
2022/06/03 03:54:02;;;;;;;;;;;16.60;99.90;;;;;;5055249;28;19940;-83
2022/06/03 03:56:31;;;;;;;;;;;16.50;99.90;;;;;;5054439;28;19913;-82
2022/06/03 03:58:59;;;;;;;;;;;16.40;99.90;;;;;;5036538;28;19913;-82
2022/06/03 04:01:40;;;;;;;;;;;16.50;99.90;;;;;;5054692;28;20274;-83
2022/06/03 04:04:09;;;;;;;;;;;16.50;99.90;;;;;;5054665;28;20388;-82
2022/06/03 04:06:44;;;;;;;;;;;16.50;99.90;;;;;;5036611;28;19958;-82
2022/06/03 04:09:10;;;;;;;;;;;16.30;99.90;;;;;;5054100;28;19958;-82
2022/06/03 04:11:35;;;;;;;;;;;16.40;99.90;;;;;;5054422;28;20395;-84
2022/06/03 04:14:07;;;;;;;;;;;16.40;99.90;;;;;;5054374;28;20240;-83
2022/06/03 04:16:35;;;;;;;;;;;16.60;99.90;;;;;;5054243;28;19913;-83
2022/06/03 04:19:34;;;;;;;;;;;16.50;99.90;;;;;;5036112;28;19909;-83
2022/06/03 04:22:15;;;;;;;;;;;16.50;99.90;;;;;;4990017;28;20365;-83
2022/06/03 04:24:46;;;;;;;;;;;16.40;99.90;;;;;;5054196;28;19909;-84
2022/06/03 04:27:21;;;;;;;;;;;16.40;99.90;;;;;;5036288;28;19954;-81
2022/06/03 04:30:05;;;;;;;;;;;16.30;99.90;;;;;;5035659;28;19912;-80
2022/06/03 04:32:49;;;;;;;;;;;16.30;99.90;;;;;;5054092;28;19908;-82
2022/06/03 04:35:33;;;;;;;;;;;16.30;99.90;;;;;;5036059;28;19954;-81
2022/06/03 04:38:34;;;;;;;;;;;16.30;99.90;;;;;;5053460;28;19920;-82
2022/06/03 04:41:09;;;;;;;;;;;16.40;99.90;;;;;;4934566;29;19933;-82
2022/06/03 04:43:35;;;;;;;;;;;16.50;99.90;;;;;;5036313;28;19909;-82
2022/06/03 04:46:31;;;;;;;;;;;16.50;99.90;;;;;;5053833;28;20324;-83
2022/06/03 04:48:57;;;;;;;;;;;16.60;99.90;;;;;;5053497;28;19912;-82
2022/06/03 04:51:28;;;;;;;;;;;16.80;99.90;;;;;;5053836;28;19916;-82
2022/06/03 04:53:57;;;;;;;;;;;16.90;99.90;;;;;;5053652;28;19912;-82
2022/06/03 04:56:28;;;;;;;;;;;16.90;99.90;;;;;;5053434;28;19939;-81
2022/06/03 04:59:07;;;;;;;;;;;16.90;99.90;;;;;;5035306;28;19909;-83
2022/06/03 05:01:38;;;;;;;;;;;17.00;99.90;;;;;;5053784;28;19996;-83
2022/06/03 05:04:22;;;;;;;;;;;17.00;99.90;;;;;;5053628;28;19951;-82
2022/06/03 05:07:06;;;;;;;;;;;17.00;99.90;;;;;;5053402;28;19909;-82
2022/06/03 05:09:50;;;;;;;;;;;16.90;99.90;;;;;;5053235;28;19995;-82
2022/06/03 05:12:22;;;;;;;;;;;17.20;99.90;;;;;;5053389;28;19908;-83
2022/06/03 05:14:53;;;;;;;;;;;17.40;99.90;;;;;;5035541;28;19935;-83
2022/06/03 05:17:25;;;;;;;;;;;17.40;99.90;;;;;;5053268;28;19913;-82
2022/06/03 05:20:02;;;;;;;;;;;17.50;99.90;;;;;;5053006;28;19912;-82
2022/06/03 05:22:40;;;;;;;;;;;17.60;99.90;;;;;;5053440;28;19909;-82
2022/06/03 05:25:19;;;;;;;;;;;17.70;99.90;;;;;;5053283;28;19909;-83
2022/06/03 05:27:53;;;;;;;;;;;17.60;99.90;;;;;;5053410;28;19915;-82
2022/06/03 05:30:38;;;;;;;;;;;17.50;99.90;;;;;;5034936;28;19909;-82
2022/06/03 05:33:09;;;;;;;;;;;17.50;99.90;;;;;;5053127;28;19909;-81
2022/06/03 05:35:41;;;;;;;;;;;17.50;99.90;;;;;;5053032;28;19974;-80
2022/06/03 05:38:40;;;;;;;;;;;17.50;99.90;;;;;;5052723;28;19925;-81
2022/06/03 05:41:06;;;;;;;;;;;17.50;99.90;;;;;;4989128;28;20284;-82
2022/06/03 05:43:31;;;;;;;;;;;17.70;99.90;;;;;;5053180;28;19909;-82
2022/06/03 05:46:09;;;;;;;;;;;17.70;99.90;;;;;;5053024;28;19919;-81
2022/06/03 05:48:43;;;;;;;;;;;17.80;99.90;;;;;;5052890;28;19909;-83
2022/06/03 05:51:12;;;;;;;;;;;17.80;99.90;;;;;;5034884;28;20358;-83
2022/06/03 05:53:56;;;;;;;;;;;17.90;99.90;;;;;;5053048;28;19924;-82
2022/06/03 05:56:28;;;;;;;;;;;18.00;99.90;;;;;;5034598;28;19913;-82
2022/06/03 05:59:00;;;;;;;;;;;17.80;99.90;;;;;;5052561;28;20320;-82
2022/06/03 06:01:44;;;;;;;;;;;17.80;99.90;;;;;;5035024;28;19909;-84
2022/06/03 06:04:24;;;;;;;;;;;17.90;99.90;;;;;;5052947;28;20007;-83
2022/06/03 06:06:59;;;;;;;;;;;17.90;99.90;;;;;;5034736;28;20284;-82
2022/06/03 06:09:36;;;;;;;;;;;17.90;99.90;;;;;;5052521;28;19916;-82
2022/06/03 06:12:02;;;;;;;;;;;18.00;99.90;;;;;;5054756;28;19997;-82
2022/06/03 06:14:46;;;;;;;;;;;18.10;99.90;;;;;;5038801;28;19963;-82
2022/06/03 06:17:20;;;;;;;;;;;18.20;99.90;;;;;;5056421;28;19920;-82
2022/06/03 06:19:52;;;;;;;;;;;18.40;99.90;;;;;;5056222;28;19938;-83
2022/06/03 06:22:17;;;;;;;;;;;18.20;99.90;;;;;;5056488;28;19975;-83
2022/06/03 06:24:57;;;;;;;;;;;18.20;99.90;;;;;;5056577;28;19916;-81
2022/06/03 06:27:29;;;;;;;;;;;18.10;99.90;;;;;;5056453;28;20296;-82
2022/06/03 06:30:00;;;;;;;;;;;18.30;99.90;;;;;;5038188;28;19909;-80
2022/06/03 06:32:33;;;;;;;;;;;18.50;99.90;;;;;;5038123;28;19909;-82
2022/06/03 06:35:11;;;;;;;;;;;18.80;99.90;;;;;;5056335;28;19909;-81
2022/06/03 06:38:03;;;;;;;;;;;19.00;99.90;;;;;;5038063;28;19921;-81
2022/06/03 06:40:37;;;;;;;;;;;19.10;99.90;;;;;;5055768;28;19908;-81
2022/06/03 06:43:11;;;;;;;;;;;19.50;99.90;;;;;;5038154;28;19909;-83
2022/06/03 06:45:37;;;;;;;;;;;19.70;99.90;;;;;;5038297;28;20273;-83
2022/06/03 06:48:05;;;;;;;;;;;20.00;99.90;;;;;;5038159;28;19958;-81
2022/06/03 06:50:34;;;;;;;;;;;20.20;99.90;;;;;;5055560;28;19909;-81
2022/06/03 06:53:00;;;;;;;;;;;20.00;99.90;;;;;;5055913;28;20258;-81
2022/06/03 06:55:28;;;;;;;;;;;19.60;99.90;;;;;;5055732;28;19909;-82
2022/06/03 06:57:58;;;;;;;;;;;19.60;99.90;;;;;;5055963;28;19916;-83
2022/06/03 07:00:27;;;;;;;;;;;19.70;99.90;;;;;;5055349;28;19916;-83
2022/06/03 07:02:53;;;;;;;;;;;19.90;99.90;;;;;;5055961;28;19909;-81
2022/06/03 07:05:18;;;;;;;;;;;20.10;99.90;;;;;;5055791;28;20428;-81
2022/06/03 07:07:47;;;;;;;;;;;20.10;99.90;;;;;;5038097;28;19909;-82
2022/06/03 07:10:16;;;;;;;;;;;20.20;99.90;;;;;;5055807;28;19908;-83
2022/06/03 07:12:44;;;;;;;;;;;20.40;99.90;;;;;;5056206;28;19908;-82
2022/06/03 07:15:12;;;;;;;;;;;20.30;99.90;;;;;;5056194;28;19909;-83
2022/06/03 07:20:40;;;;;;;;;;;20.20;99.90;;;;;;5055953;28;19932;-83
2022/06/03 07:23:11;;;;;;;;;;;20.20;99.90;;;;;;5038014;28;20418;-82
2022/06/03 07:25:36;;;;;;;;;;;20.10;99.90;;;;;;5055706;28;20284;-83
2022/06/03 07:28:08;;;;;;;;;;;20.20;99.90;;;;;;5056125;28;19916;-83
2022/06/03 07:30:40;;;;;;;;;;;20.30;99.90;;;;;;5055845;28;20377;-83
2022/06/03 07:33:33;;;;;;;;;;;20.30;99.90;;;;;;5038080;28;20369;-81
2022/06/03 07:36:06;;;;;;;;;;;20.10;99.90;;;;;;5009668;28;19912;-83
2022/06/03 07:38:39;;;;;;;;;;;20.10;99.90;;;;;;5055822;28;20246;-84
2022/06/03 07:41:07;;;;;;;;;;;19.90;99.90;;;;;;5055238;28;20315;-82
2022/06/03 07:43:40;;;;;;;;;;;19.70;99.90;;;;;;5038273;28;19958;-83
2022/06/03 07:46:11;;;;;;;;;;;19.50;99.90;;;;;;5038295;28;19909;-81
2022/06/03 07:48:37;;;;;;;;;;;19.40;99.90;;;;;;5055837;28;20078;-84
2022/06/03 07:51:09;;;;;;;;;;;19.50;99.90;;;;;;5055505;28;19959;-85
2022/06/03 07:53:44;;;;;;;;;;;19.70;99.90;;;;;;5056119;28;20373;-83
2022/06/03 07:56:10;;;;;;;;;;;20.10;99.90;;;;;;5037576;28;19913;-83
2022/06/03 07:58:39;;;;;;;;;;;20.40;99.90;;;;;;5055607;28;20457;-82
2022/06/03 08:01:06;;;;;;;;;;;20.30;99.90;;;;;;5055062;28;19908;-83
2022/06/03 08:03:37;;;;;;;;;;;20.30;99.90;;;;;;5055427;28;19909;-83
2022/06/03 08:06:04;;;;;;;;;;;20.50;99.90;;;;;;5055426;28;19934;-83
2022/06/03 08:11:33;;;;;;;;;;;21.00;99.90;;;;;;5033026;28;20003;-81
2022/06/03 08:14:00;;;;;;;;;;;21.20;99.90;;;;;;5051037;28;19909;-84
2022/06/03 08:16:31;;;;;;;;;;;21.60;99.90;;;;;;5054755;28;19920;-85
2022/06/03 08:19:02;;;;;;;;;;;21.90;97.70;;;;;;5055274;28;20042;-83
2022/06/03 08:21:32;;;;;;;;;;;22.20;96.50;;;;;;5054898;28;20434;-84
2022/06/03 08:23:58;;;;;;;;;;;22.60;95.80;;;;;;5055028;28;19916;-83
2022/06/03 08:26:26;;;;;;;;;;;23.60;93.70;;;;;;5054909;28;19909;-84
2022/06/03 08:29:05;;;;;;;;;;;24.40;92.10;;;;;;5055193;28;19909;-82
2022/06/03 08:31:31;;;;;;;;;;;24.50;87.60;;;;;;5054428;28;19940;-81
2022/06/03 08:33:58;;;;;;;;;;;24.50;85.40;;;;;;5054454;28;20018;-82
2022/06/03 08:36:29;;;;;;;;;;;24.20;85.60;;;;;;5053987;28;19986;-82
2022/06/03 08:39:04;;;;;;;;;;;24.40;84.80;;;;;;5054670;28;19951;-82
2022/06/03 08:41:45;;;;;;;;;;;24.60;81.20;;;;;;5054168;28;19958;-82
2022/06/03 08:44:29;;;;;;;;;;;24.60;79.50;;;;;;5054235;28;20365;-82
2022/06/03 08:47:03;;;;;;;;;;;24.30;81.00;;;;;;5054152;28;20389;-82
2022/06/03 08:49:43;;;;;;;;;;;24.90;78.20;;;;;;5054337;28;19913;-82
2022/06/03 08:52:10;;;;;;;;;;;25.80;73.20;;;;;;5054632;28;19996;-83
2022/06/03 08:54:46;;;;;;;;;;;25.80;71.20;;;;;;5054854;28;19915;-82
2022/06/03 08:57:16;;;;;;;;;;;25.80;70.60;;;;;;5054055;28;19920;-82
2022/06/03 08:59:46;;;;;;;;;;;25.90;72.20;;;;;;5053911;28;19908;-82
2022/06/03 09:02:18;;;;;;;;;;;26.20;70.00;;;;;;5054535;28;20000;-82
2022/06/03 09:04:50;;;;;;;;;;;26.70;68.40;;;;;;5054217;28;19916;-82
2022/06/03 09:07:23;;;;;;;;;;;26.70;67.30;;;;;;5054209;28;19913;-83
2022/06/03 09:09:54;;;;;;;;;;;27.40;67.70;;;;;;5053907;28;19909;-83
2022/06/03 09:12:20;;;;;;;;;;;27.60;65.80;;;;;;5054086;28;19909;-81
2022/06/03 09:14:47;;;;;;;;;;;27.00;65.80;;;;;;5054157;28;19962;-82
2022/06/03 09:17:22;;;;;;;;;;;27.10;65.40;;;;;;5036669;28;19919;-82
2022/06/03 09:19:48;;;;;;;;;;;27.10;64.50;;;;;;5053851;28;19924;-82
2022/06/03 09:22:19;;;;;;;;;;;27.50;65.60;;;;;;5054317;28;20289;-80
2022/06/03 09:24:45;;;;;;;;;;;27.90;63.10;;;;;;5054347;28;20361;-82
2022/06/03 09:27:16;;;;;;;;;;;28.20;62.30;;;;;;5054235;28;19915;-81
2022/06/03 09:29:46;;;;;;;;;;;28.50;61.50;;;;;;5053632;28;19935;-82
2022/06/03 09:32:12;;;;;;;;;;;29.20;62.10;;;;;;5054422;28;19909;-82
2022/06/03 09:34:45;;;;;;;;;;;29.00;60.30;;;;;;5054052;28;19963;-82
2022/06/03 09:37:26;;;;;;;;;;;28.40;60.30;;;;;;5053854;28;19967;-81
2022/06/03 09:39:53;;;;;;;;;;;29.10;61.00;;;;;;5053672;28;19909;-82
2022/06/03 09:42:19;;;;;;;;;;;29.70;59.10;;;;;;5035823;28;19909;-82
2022/06/03 09:44:46;;;;;;;;;;;29.80;58.80;;;;;;5053526;28;19909;-82
2022/06/03 09:47:14;;;;;;;;;;;29.80;58.70;;;;;;5056072;28;19962;-82
2022/06/03 09:49:40;;;;;;;;;;;30.30;58.40;;;;;;5057527;28;19958;-82
2022/06/03 09:52:10;;;;;;;;;;;30.40;56.90;;;;;;5057509;28;19912;-81
2022/06/03 09:54:39;;;;;;;;;;;30.30;58.20;;;;;;5057457;28;19913;-82
2022/06/03 09:57:04;;;;;;;;;;;30.50;57.50;;;;;;5057716;28;19955;-81
2022/06/03 09:59:30;;;;;;;;;;;31.00;57.10;;;;;;5057721;28;19909;-81
2022/06/03 10:01:56;;;;;;;;;;;30.90;56.30;;;;;;5057471;28;19944;-82
2022/06/03 10:04:23;;;;;;;;;;;30.80;56.80;;;;;;5057295;28;19947;-81
2022/06/03 10:06:50;;;;;;;;;;;31.20;55.90;;;;;;5057655;28;19909;-81
2022/06/03 10:15:38;;;;;;;;;;;32.10;54.60;;;;;;5057297;28;19916;-82
2022/06/03 10:17:32;;;;;;;;;;;32.60;54.10;;;;;;5057136;28;19923;-81
2022/06/03 10:19:58;;;;;;;;;;;33.60;54.50;;;;;;5057240;28;20341;-82
2022/06/03 10:22:24;;;;;;;;;;;34.10;53.10;;;;;;5057512;28;19991;-81
2022/06/03 10:24:49;;;;;;;;;;;34.40;52.40;;;;;;5056981;28;20396;-80
2022/06/03 10:27:18;;;;;;;;;;;34.30;52.60;;;;;;5057101;28;19909;-82
2022/06/03 10:29:50;;;;;;;;;;;34.50;51.00;;;;;;5056930;28;19909;-81
2022/06/03 10:32:18;;;;;;;;;;;34.40;51.10;;;;;;5037115;28;20269;-82
2022/06/03 10:34:44;;;;;;;;;;;33.50;51.50;;;;;;5036961;28;19909;-81
2022/06/03 10:37:11;;;;;;;;;;;33.30;53.30;;;;;;5036861;28;20024;-81
2022/06/03 10:39:39;;;;;;;;;;;34.00;52.50;;;;;;5037281;28;19909;-82
2022/06/03 10:42:05;;;;;;;;;;;34.80;51.50;;;;;;5055412;28;19962;-81
2022/06/03 10:44:36;;;;;;;;;;;35.10;50.60;;;;;;5057131;28;19908;-81
2022/06/03 10:47:06;;;;;;;;;;;35.90;51.10;;;;;;5056816;28;19908;-81
2022/06/03 10:49:35;;;;;;;;;;;37.30;49.10;;;;;;5056603;28;19915;-81
2022/06/03 11:03:05;;;;;;;;;;;36.50;49.10;;;;;;5054478;28;20031;-81
2022/06/03 11:05:31;;;;;;;;;;;35.90;48.90;;;;;;5054011;28;19909;-81
2022/06/03 11:08:01;;;;;;;;;;;35.20;49.70;;;;;;5053760;28;19909;-81
2022/06/03 11:10:28;;;;;;;;;;;35.50;49.50;;;;;;5035806;28;19908;-81
2022/06/03 11:12:57;;;;;;;;;;;36.60;49.40;;;;;;5053824;28;19909;-81
2022/06/03 11:15:31;;;;;;;;;;;37.00;47.60;;;;;;5054052;28;20383;-81
2022/06/03 11:17:57;;;;;;;;;;;36.20;48.50;;;;;;5054827;28;20024;-82
2022/06/03 11:20:36;;;;;;;;;;;37.40;48.90;;;;;;5054937;28;19916;-81
2022/06/03 11:23:03;;;;;;;;;;;37.50;46.80;;;;;;5055550;28;20006;-81
2022/06/03 11:25:30;;;;;;;;;;;37.90;48.10;;;;;;5037452;28;19908;-82
2022/06/03 11:27:59;;;;;;;;;;;39.50;46.10;;;;;;5037547;28;19995;-81
2022/06/03 11:30:24;;;;;;;;;;;38.90;46.20;;;;;;5054749;28;20007;-81
2022/06/03 11:32:52;;;;;;;;;;;39.90;45.90;;;;;;5055157;28;19948;-81
2022/06/03 11:35:29;;;;;;;;;;;40.60;45.00;;;;;;5055148;28;19963;-82
2022/06/03 11:37:56;;;;;;;;;;;40.10;44.70;;;;;;5054823;28;20389;-81
2022/06/03 11:40:26;;;;;;;;;;;40.60;44.40;;;;;;5054787;28;19923;-81
2022/06/03 11:42:56;;;;;;;;;;;40.60;43.80;;;;;;5054933;28;19909;-81
2022/06/03 11:45:24;;;;;;;;;;;39.80;44.30;;;;;;5054908;28;19912;-81
2022/06/03 11:48:10;;;;;;;;;;;40.10;44.30;;;;;;5054877;28;19916;-81
2022/06/03 11:50:35;;;;;;;;;;;38.90;44.20;;;;;;5054591;28;19962;-82
2022/06/03 11:53:01;;;;;;;;;;;40.10;44.10;;;;;;5054975;28;19913;-81
2022/06/03 11:55:28;;;;;;;;;;;40.20;43.70;;;;;;5055217;28;19945;-81
2022/06/03 11:58:06;;;;;;;;;;;40.00;44.80;;;;;;5055340;28;19934;-82
2022/06/03 12:00:36;;;;;;;;;;;39.00;44.80;;;;;;5054779;28;19935;-81
2022/06/03 12:03:21;;;;;;;;;;;37.70;46.30;;;;;;5055604;28;19909;-81
2022/06/03 12:05:51;;;;;;;;;;;38.70;46.70;;;;;;5055385;28;19908;-82
2022/06/03 12:08:27;;;;;;;;;;;39.10;44.70;;;;;;5055359;28;19962;-81
2022/06/03 12:11:01;;;;;;;;;;;38.50;45.20;;;;;;5053941;28;20437;-82
2022/06/03 12:13:30;;;;;;;;;;;37.40;46.60;;;;;;5055302;28;19932;-81
2022/06/03 12:15:56;;;;;;;;;;;38.10;46.60;;;;;;5055189;28;19920;-80
2022/06/03 12:18:35;;;;;;;;;;;39.30;46.10;;;;;;5055239;28;19916;-81
2022/06/03 12:21:08;;;;;;;;;;;38.70;46.60;;;;;;5054425;28;20003;-82
2022/06/03 12:23:36;;;;;;;;;;;38.50;45.50;;;;;;5054926;28;20377;-82
2022/06/03 12:26:17;;;;;;;;;;;39.60;44.60;;;;;;5055165;28;19909;-82
2022/06/03 12:28:45;;;;;;;;;;;41.20;44.30;;;;;;5054242;28;20365;-81
2022/06/03 12:31:22;;;;;;;;;;;40.60;43.80;;;;;;5053633;28;20051;-81
2022/06/03 12:34:06;;;;;;;;;;;40.20;44.60;;;;;;5054054;28;20285;-81
2022/06/03 12:36:38;;;;;;;;;;;38.80;45.70;;;;;;5054081;28;19921;-80
2022/06/03 12:39:09;;;;;;;;;;;38.70;46.20;;;;;;5054480;28;20007;-81
2022/06/03 12:41:58;;;;;;;;;;;38.30;46.50;;;;;;5053885;28;19908;-83
2022/06/03 12:44:35;;;;;;;;;;;38.70;46.10;;;;;;5038173;28;20304;-82
2022/06/03 12:47:19;;;;;;;;;;;38.30;46.00;;;;;;5054213;28;19909;-81
2022/06/03 12:49:47;;;;;;;;;;;38.70;45.90;;;;;;5036163;28;19909;-81
2022/06/03 12:52:22;;;;;;;;;;;37.70;46.50;;;;;;5053929;28;19909;-81
2022/06/03 12:54:55;;;;;;;;;;;37.00;48.50;;;;;;5054093;28;19913;-81
2022/06/03 12:57:23;;;;;;;;;;;38.20;47.70;;;;;;5054198;28;19921;-81
2022/06/03 12:59:55;;;;;;;;;;;36.60;47.90;;;;;;5054515;28;20333;-81
2022/06/03 13:02:22;;;;;;;;;;;34.60;50.70;;;;;;5053974;28;20003;-81
2022/06/03 13:04:54;;;;;;;;;;;35.10;50.50;;;;;;5054323;28;19955;-82
2022/06/03 13:07:25;;;;;;;;;;;36.00;49.40;;;;;;5054247;28;20320;-82
2022/06/03 13:09:53;;;;;;;;;;;34.40;52.20;;;;;;5054282;28;19909;-81
2022/06/03 13:12:26;;;;;;;;;;;33.40;53.10;;;;;;5053743;28;19947;-81
2022/06/03 13:14:52;;;;;;;;;;;33.50;54.00;;;;;;5054418;28;19909;-82
2022/06/03 13:17:36;;;;;;;;;;;33.70;53.10;;;;;;5054128;28;19923;-81
2022/06/03 13:20:02;;;;;;;;;;;33.90;53.40;;;;;;5053997;28;19910;-81
2022/06/03 13:22:29;;;;;;;;;;;34.00;52.70;;;;;;5053801;28;19920;-81
2022/06/03 13:25:13;;;;;;;;;;;33.80;53.00;;;;;;5053823;28;19991;-80
2022/06/03 13:27:38;;;;;;;;;;;34.20;53.10;;;;;;5054130;28;20003;-82
2022/06/03 13:30:10;;;;;;;;;;;34.80;52.30;;;;;;5053867;28;20005;-80
2022/06/03 13:32:35;;;;;;;;;;;34.30;52.90;;;;;;5053555;28;19908;-82
2022/06/03 13:35:27;;;;;;;;;;;34.90;52.90;;;;;;5053791;28;20281;-81
2022/06/03 13:37:56;;;;;;;;;;;36.00;51.40;;;;;;5047574;28;20400;-80
2022/06/03 13:40:24;;;;;;;;;;;36.00;50.70;;;;;;5053793;28;19991;-81
2022/06/03 13:42:58;;;;;;;;;;;37.60;49.30;;;;;;5053584;28;19909;-82
2022/06/03 13:45:44;;;;;;;;;;;37.90;49.10;;;;;;5053706;28;19909;-81
2022/06/03 13:48:14;;;;;;;;;;;36.90;49.20;;;;;;5032000;28;20372;-81
2022/06/03 13:50:41;;;;;;;;;;;35.50;50.60;;;;;;5053851;28;19916;-82
2022/06/03 13:53:10;;;;;;;;;;;35.00;51.70;;;;;;5053270;28;19915;-81
2022/06/03 13:55:35;;;;;;;;;;;33.60;53.00;;;;;;5053450;28;19909;-81
2022/06/03 13:58:18;;;;;;;;;;;32.80;54.30;;;;;;5053646;28;19915;-83
2022/06/03 14:00:49;;;;;;;;;;;32.00;55.20;;;;;;5035618;28;19916;-82
2022/06/03 14:03:22;;;;;;;;;;;31.40;56.90;;;;;;5035995;28;19908;-80
2022/06/03 14:05:51;;;;;;;;;;;31.60;57.00;;;;;;5035456;28;19952;-82
2022/06/03 14:08:19;;;;;;;;;;;31.30;58.40;;;;;;5053059;28;19909;-81
2022/06/03 14:10:50;;;;;;;;;;;31.30;58.70;;;;;;5053340;28;19983;-81
2022/06/03 14:13:15;;;;;;;;;;;30.90;60.50;;;;;;5053405;28;19908;-81
2022/06/03 14:15:56;;;;;;;;;;;31.00;62.40;;;;;;5053525;28;19916;-82
2022/06/03 14:18:40;;;;;;;;;;;31.20;64.90;;;;;;5053754;28;20008;-80
2022/06/03 14:21:07;;;;;;;;;;;31.40;67.60;;;;;;5053411;28;19908;-81
2022/06/03 14:23:36;;;;;;;;;;;31.80;64.30;;;;;;5053592;28;20239;-81
2022/06/03 14:26:05;;;;;;;;;;;32.00;62.70;;;;;;5053372;28;19916;-80
2022/06/03 14:28:40;;;;;;;;;;;31.60;63.80;;;;;;5053547;28;20561;-82
2022/06/03 14:31:26;;;;;;;;;;;31.20;63.60;;;;;;5053302;28;19908;-81
2022/06/03 14:33:54;;;;;;;;;;;30.90;64.20;;;;;;5038158;28;19963;-81
2022/06/03 14:36:20;;;;;;;;;;;30.80;63.60;;;;;;5056457;28;20015;-82
2022/06/03 14:38:48;;;;;;;;;;;30.80;64.00;;;;;;5056776;28;19947;-82
2022/06/03 14:41:19;;;;;;;;;;;30.90;64.70;;;;;;5056852;28;19944;-80
2022/06/03 14:43:45;;;;;;;;;;;30.70;64.90;;;;;;5056816;28;19944;-82
2022/06/03 14:46:18;;;;;;;;;;;30.40;65.90;;;;;;5056937;28;19916;-82
2022/06/03 14:48:48;;;;;;;;;;;30.40;66.10;;;;;;5057344;28;20001;-81
2022/06/03 14:51:34;;;;;;;;;;;30.00;64.90;;;;;;5056589;28;19916;-82
2022/06/03 14:54:07;;;;;;;;;;;29.90;66.60;;;;;;5035706;28;19944;-83
2022/06/03 14:56:43;;;;;;;;;;;29.30;65.70;;;;;;5056206;28;19913;-82
2022/06/03 14:59:28;;;;;;;;;;;29.10;67.90;;;;;;5056764;28;20258;-81
2022/06/03 15:01:57;;;;;;;;;;;28.60;68.10;;;;;;5055963;28;19916;-82
2022/06/03 15:04:35;;;;;;;;;;;28.10;70.00;;;;;;5056500;28;19909;-82
2022/06/03 15:07:02;;;;;;;;;;;27.90;70.50;;;;;;5056638;28;20307;-83
2022/06/03 15:09:40;;;;;;;;;;;27.40;71.70;;;;;;5056462;28;19951;-84
2022/06/03 15:12:14;;;;;;;;;;;27.10;73.30;;;;;;5056234;28;19913;-83
2022/06/03 15:14:42;;;;;;;;;;;26.90;75.70;;;;;;5038493;28;19913;-82